GearJammer 2014

Saturday, July 19, 2014 11:05 AM (GMT-7) - Final results

Race info
Sport: Cycling - mtn cross-country
Location: Squamish, BC, Canada
Start type: Mass start
Racers: 64
Timing mode: Bib sync
Timed on: iPad
Timed with: Webscorer PRO 1.6
Updated: Thursday, August 7, 2014 5:50 PM (GMT-7)
Organized by: Test of Metal Inc.
Race website: www.testofmetal.com

Contact organizer

Use this form to send an email to the organizer.

Your name
Your email address
Confirm email address
Message to organizer
Send

Place Bib Racer name Affiliation Category Age Gender Finish time
1101Abel, MatteoBrackendale, BC - Ridge To Valley Construction 40-4946M 2:54:22.4--100%26.99%25.00%
2383Gold Straw, CarlSquamish - Tantalus Bike Shop 40-4943M 2:57:20.6+2:58.2+1.70%98.33%25.75%23.72%
3338Welbourn, BobNorth Vancouver 40-4943M 3:04:53.6+10:31.2+6.03%94.31%22.59%20.48%
4262Phoenix, RobBrackendale, BC - Corsa Cycles 40-4947M 3:05:14.5+10:52.1+6.23%94.13%22.44%20.33%
5198Issel, BradWhite Rock - Daryl Evans 40-4942M 3:05:20.0+10:57.6+6.29%94.09%22.40%20.29%
6251Newsome, RyanPort Moody, BC - Local Ride Racing 40-4942M 3:06:00.1+11:37.7+6.67%93.75%22.12%20.00%
7306Simpson, ScottChilliwack, BC - Simpson Notaries / Pink Bike 40-4945M 3:08:27.1+14:04.7+8.07%92.53%21.10%18.94%
8390Davies, JaminVancouver, BC 40-4943M 3:13:25.8+19:03.4+10.93%90.15%19.01%16.80%
9106Battiston, TedWhistler, BC - Team Fun Hog 40-4944M 3:15:00.0+20:37.6+11.83%89.42%18.36%16.13%
10186Hendren, ChadSquamish, BC - Xprezo, Raceface, Musclemlk 40-4943M 3:16:15.4+21:53.0+12.55%88.85%17.83%15.59%
11269Rauch, MikeAbbotsford, BC - Cahilty Capital 40-4942M 3:17:16.0+22:53.6+13.13%88.39%17.41%15.15%
12294Samson, FrancoisBrackendale - Coachfrancois.Net 40-4940M 3:18:53.0+24:30.6+14.06%87.68%16.73%14.46%
13204Karu, KalleVancouver, BC 40-4945M 3:19:29.2+25:06.8+14.40%87.41%16.48%14.20%
14375Boehm, MichaelWhistler, BC - Team Whistler 40-4941M 3:20:34.0+26:11.6+15.02%86.94%16.03%13.73%
15363Lawrence, ChrisSquamish, BC - Tantalus Bike Shop 40-4948M 3:22:07.1+27:44.7+15.91%86.27%15.38%13.07%
16160Flagel, LawrenceSquamish, BC 40-4940M 3:22:35.1+28:12.7+16.18%86.07%15.18%12.87%
17355Gravel, SimonSquamish - 355 40-4940M 3:29:14.8+34:52.4+20.00%83.33%12.39%10.00%
18137Craig, PaulPitt Meadows, BC - Local Ride Racing 40-4948M 3:29:16.7+34:54.3+20.02%83.32%12.38%9.99%
19329Uruski, StevenChilliwack, BC - Steven Uruski Yard Maintenance 40-4946M 3:33:09.5+38:47.1+22.24%81.80%10.75%8.32%
20214Lachance, RayVancouver, BC - WCC/Raceface/Stans Notubes/Titus 40-4948M 3:36:47.5+42:25.1+24.33%80.43%9.23%6.76%
21185Henderson, AndrewMill Creek, WA 40-4948M 3:40:03.5+45:41.1+26.20%79.24%7.87%5.35%
22361Skinner, PatrickSquamish, BC 40-4944M 3:40:55.6+46:33.2+26.70%78.93%7.50%4.98%
23176Handford, AndrewWest Vancouver, BC - Different Bikes 40-4948M 3:45:56.2+51:33.8+29.57%77.18%5.40%2.82%
24311Storey, BrianBurnaby, BC - EV Pb Catalyst Kinetics 40-4943M 3:46:59.4+52:37.0+30.17%76.82%4.96%2.37%
25385Russell, CharlesWest Vancouver - Escape Welocity 40-4948M 3:47:13.3+52:50.9+30.31%76.74%4.87%2.27%
26400Dave Hawkshaw 40-49M 3:48:35.0+54:12.6+31.09%76.28%4.30%1.68%
27357Clark, DarenBrackendale, BC 40-4941M 3:48:57.0+54:34.6+31.30%76.16%4.14%1.53%
28202Jones, KellyNorth Vancouver, BC - Steed Cycles 40-4944F 3:49:51.8+55:29.4+31.82%75.86%3.76%1.13%
29346Wong, JohnVancouver, BC - Team Whistler 40-4949M 3:52:07.6+57:45.2+33.12%75.12%2.81%0.16%
30227Magnusson, DavidPort Coquitlam, BC 40-4948M 3:52:52.2+58:29.8+33.55%74.88%2.50%-0.16%
31304Silcock, JonathanNorth Vancouver, BC - Obsession Bikes 40-4940M 3:55:00.0+1:00:37.6+34.77%74.20%1.61%-1.08%
32181Hardy, KevinSquamish, BC 40-4942M 4:00:24.1+1:06:01.7+37.87%72.53%-0.65%-3.40%
33242Mollet, KeithNorth Vancouver, BC 40-4947M 4:02:51.8+1:08:29.4+39.28%71.80%-1.68%-4.46%
34264Piper, MichaelPort Moody, BC 40-4941M 4:04:17.6+1:09:55.2+40.10%71.38%-2.28%-5.07%
35322Thompson, SteveWest Vancouver, BC - Chief's Biking Club 40-4946M 4:05:08.6+1:10:46.2+40.59%71.13%-2.64%-5.44%
36369Currier, JeffSquamish, BC 40-4940M 4:05:28.5+1:11:06.1+40.78%71.04%-2.78%-5.58%
37332Varey, NickSquamish, BC 40-4940M 4:10:10.3+1:15:47.9+43.47%69.70%-4.74%-7.60%
38107Benson, AndrewVancouver, BC 40-4944M 4:12:57.4+1:18:35.0+45.07%68.93%-5.91%-8.80%
39180Hardiman, JillWhite Salmon, WA - Team S & M 40-4944F 4:17:12.2+1:22:49.8+47.50%67.80%-7.69%-10.63%
40278Ridder, JonAbbotsford, BC 40-4943M 4:22:03.6+1:27:41.2+50.29%66.54%-9.72%-12.71%
41353Schulte, HollySquamish, BC 40-4949F 4:22:21.1+1:27:58.7+50.45%66.47%-9.84%-12.84%
42154Eastman, RickNorth Vancouver - Chief's Biking Club 40-4947M 4:23:11.8+1:28:49.4+50.94%66.25%-10.20%-13.20%
43166Gatchalian, FranciscoPort Coquitlam - Trailside Physio 40-4941M 4:26:01.4+1:31:39.0+52.56%65.55%-11.38%-14.42%
44118Brooks, ChadPort Moody, BC - Trailside Physio 40-4942M 4:26:02.1+1:31:39.7+52.57%65.55%-11.38%-14.42%
45307Smith, PhilNew Westminster, BC 40-4940M 4:29:32.3+1:35:09.9+54.58%64.69%-12.85%-15.93%
46120Burns, RobNorth Vancouver, BC 40-4941M 4:29:36.9+1:35:14.5+54.62%64.67%-12.88%-15.96%
47372Daly, SeanSquamish, BC - Nesters 40-4940M 4:31:53.9+1:37:31.5+55.93%64.13%-13.84%-16.95%
48368Plumb, TinaSquamish 40-4944F 4:33:14.7+1:38:52.3+56.70%63.82%-14.40%-17.53%
49377Messetchkov, SlavNorth Vancouver, BC - N/A 40-4948M 4:42:11.5+1:47:49.1+61.83%61.79%-18.15%-21.37%
50124Carter, ChrisNorth Vancouver, BC 40-4948M 4:43:56.2+1:49:33.8+62.83%61.41%-18.88%-22.12%
51170Gravel, ChrisNorth Vancouver, BC 40-4944M 4:43:58.0+1:49:35.6+62.85%61.41%-18.89%-22.14%
52225Macdonald, KimSquamish 40-4944M 4:45:47.4+1:51:25.0+63.90%61.01%-19.65%-22.92%
53241Mocnik, EdwardCoquitlam, BC - EJM 9Nuts 40-4946M 4:49:32.0+1:55:09.6+66.04%60.23%-21.22%-24.53%
54133Cirelli, FelixSquamish, BC 40-4947M 4:59:39.3+2:05:16.9+71.85%58.19%-25.46%-28.88%
55285Ross, HartlandNorth Vancouver, BC 40-4940M 5:13:31.6+2:19:09.2+79.80%55.62%-31.27%-34.85%
56193Hui, WylieVancouver, BC 40-4942M 5:23:25.2+2:29:02.8+85.48%53.92%-35.41%-39.11%
57350Yip, GeVancouver, BC 40-4943M 5:30:20.2+2:35:57.8+89.44%52.79%-38.31%-42.08%
58244Monge, ToddSquamish, BC 40-4942M 5:53:59.8+2:59:37.4+103.01%49.26%-48.21%-52.26%
-126Castellanos, RodSquamish, BC 40-4942M DNF-----
-228Maika, JosephWest Vancouver, BC - Team Whistler 40-4949M DNF-----
-250Neufeld, JohnSquamish, BC - Team Weedman 40-4949M DNF-----
-354Raiser, BryanSquamish - Chief 40-4942M DNF-----
-364Christie, ChrisSquam - MEC/Ryders Eyewear 40-4945M DNF-----
-366Covey, BrennanSquamish, BC 40-4943M DNF-----